sensor_id;sensor_type;location;lat;lon;timestamp;pressure;altitude;pressure_sealevel;temperature;humidity
41654;BME280;68687;52.030;7.110;2023-12-20T00:01:45;100611.16;;;6.43;100.00
41654;BME280;68687;52.030;7.110;2023-12-20T00:04:11;100609.63;;;6.40;100.00
41654;BME280;68687;52.030;7.110;2023-12-20T00:06:36;100615.13;;;6.39;100.00
41654;BME280;68687;52.030;7.110;2023-12-20T00:09:01;100620.63;;;6.37;100.00
41654;BME280;68687;52.030;7.110;2023-12-20T00:11:26;100607.94;;;6.31;100.00
41654;BME280;68687;52.030;7.110;2023-12-20T00:13:52;100617.75;;;6.31;100.00
41654;BME280;68687;52.030;7.110;2023-12-20T00:16:17;100616.47;;;6.17;100.00
41654;BME280;68687;52.030;7.110;2023-12-20T00:18:45;100628.81;;;6.18;100.00
41654;BME280;68687;52.030;7.110;2023-12-20T00:21:11;100626.75;;;6.12;100.00
41654;BME280;68687;52.030;7.110;2023-12-20T00:23:36;100629.63;;;6.18;100.00
41654;BME280;68687;52.030;7.110;2023-12-20T00:26:13;100620.06;;;6.08;100.00
41654;BME280;68687;52.030;7.110;2023-12-20T00:28:39;100628.06;;;6.08;100.00
41654;BME280;68687;52.030;7.110;2023-12-20T00:31:04;100631.41;;;6.10;100.00
41654;BME280;68687;52.030;7.110;2023-12-20T00:33:29;100627.69;;;6.03;100.00
41654;BME280;68687;52.030;7.110;2023-12-20T00:35:57;100630.88;;;6.06;100.00
41654;BME280;68687;52.030;7.110;2023-12-20T00:38:23;100618.31;;;5.99;100.00
41654;BME280;68687;52.030;7.110;2023-12-20T00:40:48;100610.72;;;6.04;100.00
41654;BME280;68687;52.030;7.110;2023-12-20T00:43:14;100620.00;;;6.00;100.00
41654;BME280;68687;52.030;7.110;2023-12-20T00:45:43;100627.59;;;5.95;100.00
41654;BME280;68687;52.030;7.110;2023-12-20T00:48:08;100620.09;;;5.90;100.00
41654;BME280;68687;52.030;7.110;2023-12-20T00:50:33;100620.09;;;5.90;100.00
41654;BME280;68687;52.030;7.110;2023-12-20T00:52:59;100621.50;;;5.84;100.00
41654;BME280;68687;52.030;7.110;2023-12-20T00:55:24;100621.19;;;5.70;100.00
41654;BME280;68687;52.030;7.110;2023-12-20T00:57:49;100613.34;;;5.68;100.00
41654;BME280;68687;52.030;7.110;2023-12-20T01:00:15;100608.13;;;5.76;100.00
41654;BME280;68687;52.030;7.110;2023-12-20T01:02:40;100623.63;;;5.63;100.00
41654;BME280;68687;52.030;7.110;2023-12-20T01:05:06;100613.66;;;5.65;100.00
41654;BME280;68687;52.030;7.110;2023-12-20T01:07:32;100612.66;;;5.66;100.00
41654;BME280;68687;52.030;7.110;2023-12-20T01:09:57;100616.78;;;5.61;100.00
41654;BME280;68687;52.030;7.110;2023-12-20T01:12:23;100616.09;;;5.58;100.00
41654;BME280;68687;52.030;7.110;2023-12-20T01:14:48;100622.25;;;5.59;100.00
41654;BME280;68687;52.030;7.110;2023-12-20T01:17:13;100621.66;;;5.65;100.00
41654;BME280;68687;52.030;7.110;2023-12-20T01:19:39;100622.56;;;5.74;100.00
41654;BME280;68687;52.030;7.110;2023-12-20T01:22:04;100617.53;;;5.71;100.00
41654;BME280;68687;52.030;7.110;2023-12-20T01:24:30;100609.31;;;5.64;100.00
41654;BME280;68687;52.030;7.110;2023-12-20T01:26:55;100618.63;;;5.60;100.00
41654;BME280;68687;52.030;7.110;2023-12-20T01:29:23;100613.28;;;5.60;100.00
41654;BME280;68687;52.030;7.110;2023-12-20T01:31:48;100594.94;;;5.57;100.00
41654;BME280;68687;52.030;7.110;2023-12-20T01:34:14;100603.94;;;5.56;100.00
41654;BME280;68687;52.030;7.110;2023-12-20T01:36:39;100607.88;;;5.52;100.00
41654;BME280;68687;52.030;7.110;2023-12-20T01:39:04;100607.63;;;5.45;100.00
41654;BME280;68687;52.030;7.110;2023-12-20T01:41:29;100604.44;;;5.42;100.00
41654;BME280;68687;52.030;7.110;2023-12-20T01:43:55;100603.91;;;5.38;100.00
41654;BME280;68687;52.030;7.110;2023-12-20T01:46:22;100614.19;;;5.33;100.00
41654;BME280;68687;52.030;7.110;2023-12-20T01:48:48;100607.88;;;5.34;100.00
41654;BME280;68687;52.030;7.110;2023-12-20T01:51:14;100618.97;;;5.30;100.00
41654;BME280;68687;52.030;7.110;2023-12-20T01:53:40;100619.16;;;5.18;100.00
41654;BME280;68687;52.030;7.110;2023-12-20T01:56:07;100617.06;;;5.22;100.00
41654;BME280;68687;52.030;7.110;2023-12-20T01:58:33;100617.22;;;5.20;100.00
41654;BME280;68687;52.030;7.110;2023-12-20T02:00:59;100616.78;;;5.15;100.00
41654;BME280;68687;52.030;7.110;2023-12-20T02:03:24;100616.09;;;5.13;100.00
41654;BME280;68687;52.030;7.110;2023-12-20T02:05:50;100618.75;;;5.13;100.00
41654;BME280;68687;52.030;7.110;2023-12-20T02:08:15;100614.03;;;5.07;100.00
41654;BME280;68687;52.030;7.110;2023-12-20T02:10:40;100612.22;;;5.08;100.00
41654;BME280;68687;52.030;7.110;2023-12-20T02:13:07;100613.34;;;5.05;100.00
41654;BME280;68687;52.030;7.110;2023-12-20T02:15:32;100619.44;;;4.97;100.00
41654;BME280;68687;52.030;7.110;2023-12-20T02:17:57;100616.22;;;4.94;100.00
41654;BME280;68687;52.030;7.110;2023-12-20T02:20:26;100627.97;;;4.91;100.00
41654;BME280;68687;52.030;7.110;2023-12-20T02:22:51;100624.63;;;4.89;100.00
41654;BME280;68687;52.030;7.110;2023-12-20T02:25:16;100623.22;;;4.95;100.00
41654;BME280;68687;52.030;7.110;2023-12-20T02:27:42;100614.13;;;4.88;100.00
41654;BME280;68687;52.030;7.110;2023-12-20T02:30:08;100608.97;;;4.86;100.00
41654;BME280;68687;52.030;7.110;2023-12-20T02:32:33;100607.81;;;4.89;100.00
41654;BME280;68687;52.030;7.110;2023-12-20T02:34:59;100607.72;;;4.81;100.00
41654;BME280;68687;52.030;7.110;2023-12-20T02:37:24;100613.28;;;4.87;100.00
41654;BME280;68687;52.030;7.110;2023-12-20T02:39:49;100605.97;;;4.72;100.00
41654;BME280;68687;52.030;7.110;2023-12-20T02:42:15;100608.56;;;4.81;100.00
41654;BME280;68687;52.030;7.110;2023-12-20T02:44:40;100605.06;;;4.81;100.00
41654;BME280;68687;52.030;7.110;2023-12-20T02:47:05;100599.16;;;4.87;100.00
41654;BME280;68687;52.030;7.110;2023-12-20T02:49:31;100604.78;;;4.84;100.00
41654;BME280;68687;52.030;7.110;2023-12-20T02:51:56;100608.13;;;4.86;100.00
41654;BME280;68687;52.030;7.110;2023-12-20T02:54:24;100595.22;;;4.91;100.00
41654;BME280;68687;52.030;7.110;2023-12-20T02:56:49;100593.25;;;4.93;100.00
41654;BME280;68687;52.030;7.110;2023-12-20T02:59:15;100589.91;;;4.91;100.00
41654;BME280;68687;52.030;7.110;2023-12-20T03:01:44;100585.00;;;4.96;100.00
41654;BME280;68687;52.030;7.110;2023-12-20T03:04:10;100576.31;;;4.94;100.00
41654;BME280;68687;52.030;7.110;2023-12-20T03:06:35;100579.25;;;4.91;100.00
41654;BME280;68687;52.030;7.110;2023-12-20T03:09:00;100587.53;;;4.88;100.00
41654;BME280;68687;52.030;7.110;2023-12-20T03:11:28;100585.16;;;4.85;100.00
41654;BME280;68687;52.030;7.110;2023-12-20T03:13:57;100597.47;;;4.86;100.00
41654;BME280;68687;52.030;7.110;2023-12-20T03:16:23;100583.50;;;4.84;100.00
41654;BME280;68687;52.030;7.110;2023-12-20T03:18:51;100577.59;;;4.90;100.00
41654;BME280;68687;52.030;7.110;2023-12-20T03:21:17;100586.69;;;4.87;100.00
41654;BME280;68687;52.030;7.110;2023-12-20T03:23:42;100582.50;;;4.85;100.00
41654;BME280;68687;52.030;7.110;2023-12-20T03:26:11;100581.28;;;4.79;100.00
41654;BME280;68687;52.030;7.110;2023-12-20T03:28:36;100570.19;;;4.84;100.00
41654;BME280;68687;52.030;7.110;2023-12-20T03:31:02;100562.22;;;4.84;100.00
41654;BME280;68687;52.030;7.110;2023-12-20T03:33:31;100570.88;;;4.86;100.00
41654;BME280;68687;52.030;7.110;2023-12-20T03:35:56;100565.88;;;4.83;100.00
41654;BME280;68687;52.030;7.110;2023-12-20T03:38:22;100557.75;;;4.84;100.00
41654;BME280;68687;52.030;7.110;2023-12-20T03:40:49;100557.88;;;4.83;100.00
41654;BME280;68687;52.030;7.110;2023-12-20T03:43:17;100561.38;;;4.83;100.00
41654;BME280;68687;52.030;7.110;2023-12-20T03:45:42;100571.88;;;4.85;100.00
41654;BME280;68687;52.030;7.110;2023-12-20T03:48:08;100577.34;;;4.83;100.00
41654;BME280;68687;52.030;7.110;2023-12-20T03:50:34;100580.38;;;4.88;100.00
41654;BME280;68687;52.030;7.110;2023-12-20T03:52:59;100572.25;;;4.90;100.00
41654;BME280;68687;52.030;7.110;2023-12-20T03:55:25;100566.63;;;4.93;100.00
41654;BME280;68687;52.030;7.110;2023-12-20T03:57:50;100561.09;;;4.86;100.00
41654;BME280;68687;52.030;7.110;2023-12-20T04:00:18;100570.03;;;4.95;100.00
41654;BME280;68687;52.030;7.110;2023-12-20T04:02:44;100563.28;;;4.91;100.00
41654;BME280;68687;52.030;7.110;2023-12-20T04:05:09;100563.16;;;4.92;100.00
41654;BME280;68687;52.030;7.110;2023-12-20T04:07:35;100558.13;;;4.89;100.00
41654;BME280;68687;52.030;7.110;2023-12-20T04:10:01;100553.34;;;4.93;100.00
41654;BME280;68687;52.030;7.110;2023-12-20T04:12:28;100558.25;;;4.97;100.00
41654;BME280;68687;52.030;7.110;2023-12-20T04:14:53;100560.75;;;4.99;100.00
41654;BME280;68687;52.030;7.110;2023-12-20T04:17:18;100565.22;;;4.99;100.00
41654;BME280;68687;52.030;7.110;2023-12-20T04:19:44;100568.28;;;5.04;100.00
41654;BME280;68687;52.030;7.110;2023-12-20T04:22:09;100571.69;;;4.96;100.00
41654;BME280;68687;52.030;7.110;2023-12-20T04:24:34;100577.00;;;4.96;100.00
41654;BME280;68687;52.030;7.110;2023-12-20T04:27:00;100582.88;;;5.00;100.00
41654;BME280;68687;52.030;7.110;2023-12-20T04:29:26;100578.38;;;5.00;100.00
41654;BME280;68687;52.030;7.110;2023-12-20T04:31:51;100573.91;;;5.01;100.00
41654;BME280;68687;52.030;7.110;2023-12-20T04:34:17;100573.59;;;5.04;100.00
41654;BME280;68687;52.030;7.110;2023-12-20T04:36:42;100578.31;;;5.10;100.00
41654;BME280;68687;52.030;7.110;2023-12-20T04:39:08;100574.97;;;5.08;100.00
41654;BME280;68687;52.030;7.110;2023-12-20T04:41:33;100565.00;;;5.10;100.00
41654;BME280;68687;52.030;7.110;2023-12-20T04:43:58;100562.34;;;5.10;100.00
41654;BME280;68687;52.030;7.110;2023-12-20T04:46:23;100563.72;;;5.14;100.00
41654;BME280;68687;52.030;7.110;2023-12-20T04:48:49;100573.22;;;5.16;100.00
41654;BME280;68687;52.030;7.110;2023-12-20T04:51:15;100566.38;;;5.14;100.00
41654;BME280;68687;52.030;7.110;2023-12-20T04:53:40;100572.25;;;5.17;100.00
41654;BME280;68687;52.030;7.110;2023-12-20T04:56:05;100567.34;;;5.22;100.00
41654;BME280;68687;52.030;7.110;2023-12-20T04:58:33;100568.16;;;5.23;100.00
41654;BME280;68687;52.030;7.110;2023-12-20T05:00:59;100553.59;;;5.17;100.00
41654;BME280;68687;52.030;7.110;2023-12-20T05:03:24;100551.63;;;5.19;100.00
41654;BME280;68687;52.030;7.110;2023-12-20T05:05:49;100556.97;;;5.19;100.00
41654;BME280;68687;52.030;7.110;2023-12-20T05:08:14;100541.81;;;5.20;100.00
41654;BME280;68687;52.030;7.110;2023-12-20T05:10:40;100549.44;;;5.15;100.00
41654;BME280;68687;52.030;7.110;2023-12-20T05:13:05;100562.88;;;5.13;100.00
41654;BME280;68687;52.030;7.110;2023-12-20T05:15:31;100560.91;;;5.15;100.00
41654;BME280;68687;52.030;7.110;2023-12-20T05:17:56;100552.78;;;5.17;100.00
41654;BME280;68687;52.030;7.110;2023-12-20T05:20:21;100543.28;;;5.14;100.00
41654;BME280;68687;52.030;7.110;2023-12-20T05:22:46;100548.97;;;5.19;100.00
41654;BME280;68687;52.030;7.110;2023-12-20T05:25:12;100552.25;;;5.13;100.00
41654;BME280;68687;52.030;7.110;2023-12-20T05:27:37;100530.66;;;5.16;100.00
41654;BME280;68687;52.030;7.110;2023-12-20T05:30:03;100533.78;;;5.12;100.00
41654;BME280;68687;52.030;7.110;2023-12-20T05:32:29;100537.66;;;5.17;100.00
41654;BME280;68687;52.030;7.110;2023-12-20T05:34:54;100532.06;;;5.20;100.00
41654;BME280;68687;52.030;7.110;2023-12-20T05:37:20;100555.00;;;5.21;100.00
41654;BME280;68687;52.030;7.110;2023-12-20T05:39:45;100552.63;;;5.18;100.00
41654;BME280;68687;52.030;7.110;2023-12-20T05:42:10;100545.19;;;5.22;100.00
41654;BME280;68687;52.030;7.110;2023-12-20T05:44:35;100542.81;;;5.19;100.00
41654;BME280;68687;52.030;7.110;2023-12-20T05:47:01;100556.00;;;5.20;100.00
41654;BME280;68687;52.030;7.110;2023-12-20T05:49:33;100548.78;;;5.31;100.00
41654;BME280;68687;52.030;7.110;2023-12-20T05:51:58;100551.91;;;5.26;100.00
41654;BME280;68687;52.030;7.110;2023-12-20T05:54:23;100549.38;;;5.24;100.00
41654;BME280;68687;52.030;7.110;2023-12-20T05:56:51;100556.38;;;5.25;100.00
41654;BME280;68687;52.030;7.110;2023-12-20T05:59:16;100555.38;;;5.26;100.00
41654;BME280;68687;52.030;7.110;2023-12-20T06:01:42;100555.31;;;5.36;100.00
41654;BME280;68687;52.030;7.110;2023-12-20T06:04:07;100550.44;;;5.32;100.00
41654;BME280;68687;52.030;7.110;2023-12-20T06:06:32;100549.06;;;5.27;100.00
41654;BME280;68687;52.030;7.110;2023-12-20T06:08:57;100547.41;;;5.26;100.00
41654;BME280;68687;52.030;7.110;2023-12-20T06:11:23;100544.44;;;5.30;100.00
41654;BME280;68687;52.030;7.110;2023-12-20T06:13:51;100542.75;;;5.28;100.00
41654;BME280;68687;52.030;7.110;2023-12-20T06:16:18;100552.72;;;5.26;100.00
41654;BME280;68687;52.030;7.110;2023-12-20T06:18:43;100545.44;;;5.28;100.00
41654;BME280;68687;52.030;7.110;2023-12-20T06:21:08;100543.44;;;5.31;100.00
41654;BME280;68687;52.030;7.110;2023-12-20T06:23:37;100555.78;;;5.32;100.00
41654;BME280;68687;52.030;7.110;2023-12-20T06:26:03;100551.66;;;5.37;100.00
41654;BME280;68687;52.030;7.110;2023-12-20T06:28:28;100545.34;;;5.38;100.00
41654;BME280;68687;52.030;7.110;2023-12-20T06:30:53;100548.84;;;5.39;100.00
41654;BME280;68687;52.030;7.110;2023-12-20T06:33:20;100552.13;;;5.33;100.00
41654;BME280;68687;52.030;7.110;2023-12-20T06:35:46;100559.25;;;5.32;100.00
41654;BME280;68687;52.030;7.110;2023-12-20T06:38:11;100546.50;;;5.36;100.00
41654;BME280;68687;52.030;7.110;2023-12-20T06:40:37;100544.19;;;5.41;100.00
41654;BME280;68687;52.030;7.110;2023-12-20T06:43:02;100554.00;;;5.40;100.00
41654;BME280;68687;52.030;7.110;2023-12-20T06:45:28;100541.53;;;5.41;100.00
41654;BME280;68687;52.030;7.110;2023-12-20T06:47:53;100536.22;;;5.41;100.00
41654;BME280;68687;52.030;7.110;2023-12-20T06:50:20;100539.19;;;5.38;100.00
41654;BME280;68687;52.030;7.110;2023-12-20T06:52:45;100535.91;;;5.44;100.00
41654;BME280;68687;52.030;7.110;2023-12-20T06:55:13;100541.91;;;5.46;100.00
41654;BME280;68687;52.030;7.110;2023-12-20T06:57:38;100546.88;;;5.41;100.00
41654;BME280;68687;52.030;7.110;2023-12-20T07:00:04;100545.56;;;5.45;100.00
41654;BME280;68687;52.030;7.110;2023-12-20T07:02:30;100536.59;;;5.46;100.00
41654;BME280;68687;52.030;7.110;2023-12-20T07:04:56;100526.66;;;5.48;100.00
41654;BME280;68687;52.030;7.110;2023-12-20T07:07:22;100532.94;;;5.47;100.00
41654;BME280;68687;52.030;7.110;2023-12-20T07:09:49;100530.16;;;5.48;100.00
41654;BME280;68687;52.030;7.110;2023-12-20T07:12:17;100530.16;;;5.48;100.00
41654;BME280;68687;52.030;7.110;2023-12-20T07:14:47;100532.09;;;5.46;100.00
41654;BME280;68687;52.030;7.110;2023-12-20T07:17:13;100535.31;;;5.50;100.00
41654;BME280;68687;52.030;7.110;2023-12-20T07:19:43;100535.31;;;5.50;100.00
41654;BME280;68687;52.030;7.110;2023-12-20T07:22:08;100538.25;;;5.47;100.00
41654;BME280;68687;52.030;7.110;2023-12-20T07:24:37;100528.16;;;5.50;100.00
41654;BME280;68687;52.030;7.110;2023-12-20T07:27:02;100532.34;;;5.53;100.00
41654;BME280;68687;52.030;7.110;2023-12-20T07:29:27;100528.00;;;5.52;100.00
41654;BME280;68687;52.030;7.110;2023-12-20T07:31:53;100534.31;;;5.51;100.00
41654;BME280;68687;52.030;7.110;2023-12-20T07:34:19;100533.03;;;5.55;100.00
41654;BME280;68687;52.030;7.110;2023-12-20T07:36:44;100526.88;;;5.54;100.00
41654;BME280;68687;52.030;7.110;2023-12-20T07:39:16;100530.06;;;5.58;100.00
41654;BME280;68687;52.030;7.110;2023-12-20T07:41:41;100520.72;;;5.54;100.00
41654;BME280;68687;52.030;7.110;2023-12-20T07:44:06;100522.06;;;5.58;100.00
41654;BME280;68687;52.030;7.110;2023-12-20T07:46:32;100519.25;;;5.59;100.00
41654;BME280;68687;52.030;7.110;2023-12-20T07:48:58;100515.59;;;5.61;100.00
41654;BME280;68687;52.030;7.110;2023-12-20T07:51:23;100522.97;;;5.67;100.00
41654;BME280;68687;52.030;7.110;2023-12-20T07:53:51;100518.16;;;5.70;100.00
41654;BME280;68687;52.030;7.110;2023-12-20T07:56:18;100521.50;;;5.72;100.00
41654;BME280;68687;52.030;7.110;2023-12-20T07:58:44;100521.28;;;5.66;100.00
41654;BME280;68687;52.030;7.110;2023-12-20T08:01:13;100522.19;;;5.74;100.00
41654;BME280;68687;52.030;7.110;2023-12-20T08:03:38;100521.34;;;5.74;100.00
41654;BME280;68687;52.030;7.110;2023-12-20T08:06:04;100522.50;;;5.71;100.00
41654;BME280;68687;52.030;7.110;2023-12-20T08:08:29;100517.69;;;5.75;100.00
41654;BME280;68687;52.030;7.110;2023-12-20T08:10:55;100520.06;;;5.78;100.00
41654;BME280;68687;52.030;7.110;2023-12-20T08:13:22;100528.22;;;5.76;100.00
41654;BME280;68687;52.030;7.110;2023-12-20T08:15:51;100523.56;;;5.78;100.00
41654;BME280;68687;52.030;7.110;2023-12-20T08:18:16;100514.44;;;5.81;100.00
41654;BME280;68687;52.030;7.110;2023-12-20T08:20:41;100509.69;;;5.75;100.00
41654;BME280;68687;52.030;7.110;2023-12-20T08:23:07;100525.41;;;5.78;100.00
41654;BME280;68687;52.030;7.110;2023-12-20T08:25:32;100529.22;;;5.75;100.00
41654;BME280;68687;52.030;7.110;2023-12-20T08:27:57;100538.88;;;5.76;100.00
41654;BME280;68687;52.030;7.110;2023-12-20T08:30:25;100519.06;;;5.79;100.00
41654;BME280;68687;52.030;7.110;2023-12-20T08:32:51;100528.13;;;5.86;100.00
41654;BME280;68687;52.030;7.110;2023-12-20T08:35:16;100527.28;;;5.85;100.00
41654;BME280;68687;52.030;7.110;2023-12-20T08:37:54;100535.94;;;5.87;100.00
41654;BME280;68687;52.030;7.110;2023-12-20T08:40:20;100532.16;;;5.90;100.00
41654;BME280;68687;52.030;7.110;2023-12-20T08:42:45;100532.00;;;5.92;100.00
41654;BME280;68687;52.030;7.110;2023-12-20T08:45:17;100524.09;;;5.82;100.00
41654;BME280;68687;52.030;7.110;2023-12-20T08:47:45;100512.38;;;5.93;100.00
41654;BME280;68687;52.030;7.110;2023-12-20T08:50:13;100514.03;;;5.94;100.00
41654;BME280;68687;52.030;7.110;2023-12-20T08:52:38;100511.38;;;5.94;100.00
41654;BME280;68687;52.030;7.110;2023-12-20T08:55:04;100515.22;;;5.99;100.00
41654;BME280;68687;52.030;7.110;2023-12-20T08:57:29;100514.25;;;6.00;100.00
41654;BME280;68687;52.030;7.110;2023-12-20T08:59:57;100516.84;;;5.92;100.00
41654;BME280;68687;52.030;7.110;2023-12-20T09:02:22;100502.53;;;5.93;100.00
41654;BME280;68687;52.030;7.110;2023-12-20T09:04:50;100497.72;;;5.97;100.00
41654;BME280;68687;52.030;7.110;2023-12-20T09:07:23;100498.31;;;6.08;100.00
41654;BME280;68687;52.030;7.110;2023-12-20T09:09:50;100500.09;;;6.00;100.00
41654;BME280;68687;52.030;7.110;2023-12-20T09:12:15;100493.47;;;6.04;100.00
41654;BME280;68687;52.030;7.110;2023-12-20T09:14:40;100494.38;;;5.95;100.00
41654;BME280;68687;52.030;7.110;2023-12-20T09:17:06;100492.75;;;6.02;100.00
41654;BME280;68687;52.030;7.110;2023-12-20T09:19:40;100480.59;;;5.99;100.00
41654;BME280;68687;52.030;7.110;2023-12-20T09:22:05;100485.31;;;6.05;100.00
41654;BME280;68687;52.030;7.110;2023-12-20T09:24:31;100468.50;;;6.05;100.00
41654;BME280;68687;52.030;7.110;2023-12-20T09:26:59;100493.00;;;6.08;100.00
41654;BME280;68687;52.030;7.110;2023-12-20T09:29:24;100493.47;;;6.04;100.00
41654;BME280;68687;52.030;7.110;2023-12-20T09:31:50;100489.59;;;5.98;100.00
41654;BME280;68687;52.030;7.110;2023-12-20T09:34:16;100471.84;;;6.07;100.00
41654;BME280;68687;52.030;7.110;2023-12-20T09:36:45;100479.16;;;6.05;100.00
41654;BME280;68687;52.030;7.110;2023-12-20T09:39:13;100505.63;;;6.06;100.00
41654;BME280;68687;52.030;7.110;2023-12-20T09:41:43;100501.16;;;6.07;100.00
41654;BME280;68687;52.030;7.110;2023-12-20T09:44:14;100502.13;;;6.06;100.00
41654;BME280;68687;52.030;7.110;2023-12-20T09:46:44;100499.84;;;6.11;100.00
41654;BME280;68687;52.030;7.110;2023-12-20T09:49:10;100510.81;;;6.08;100.00
41654;BME280;68687;52.030;7.110;2023-12-20T09:51:36;100509.19;;;6.15;100.00
41654;BME280;68687;52.030;7.110;2023-12-20T09:54:04;100519.84;;;6.15;100.00
41654;BME280;68687;52.030;7.110;2023-12-20T09:56:30;100505.31;;;6.09;100.00
41654;BME280;68687;52.030;7.110;2023-12-20T09:58:56;100514.31;;;6.08;100.00
41654;BME280;68687;52.030;7.110;2023-12-20T10:01:22;100517.59;;;6.02;100.00
41654;BME280;68687;52.030;7.110;2023-12-20T10:03:54;100522.63;;;6.05;100.00
41654;BME280;68687;52.030;7.110;2023-12-20T10:06:22;100518.34;;;6.12;100.00
41654;BME280;68687;52.030;7.110;2023-12-20T10:08:48;100532.50;;;6.13;100.00
41654;BME280;68687;52.030;7.110;2023-12-20T10:11:13;100514.31;;;6.08;100.00
41654;BME280;68687;52.030;7.110;2023-12-20T10:13:40;100526.47;;;6.11;100.00
41654;BME280;68687;52.030;7.110;2023-12-20T10:16:12;100507.47;;;6.06;100.00
41654;BME280;68687;52.030;7.110;2023-12-20T10:18:37;100509.03;;;6.16;100.00
41654;BME280;68687;52.030;7.110;2023-12-20T10:21:03;100507.78;;;6.03;100.00
41654;BME280;68687;52.030;7.110;2023-12-20T10:23:29;100519.81;;;6.07;100.00
41654;BME280;68687;52.030;7.110;2023-12-20T10:25:59;100530.16;;;6.10;100.00
41654;BME280;68687;52.030;7.110;2023-12-20T10:28:33;100519.28;;;6.03;100.00
41654;BME280;68687;52.030;7.110;2023-12-20T10:30:59;100522.47;;;6.07;100.00
41654;BME280;68687;52.030;7.110;2023-12-20T10:33:28;100518.50;;;6.11;100.00
41654;BME280;68687;52.030;7.110;2023-12-20T10:35:56;100511.66;;;6.08;100.00
41654;BME280;68687;52.030;7.110;2023-12-20T10:38:24;100515.88;;;6.19;100.00
41654;BME280;68687;52.030;7.110;2023-12-20T10:40:54;100509.19;;;6.15;100.00
41654;BME280;68687;52.030;7.110;2023-12-20T10:43:22;100504.69;;;6.15;100.00
41654;BME280;68687;52.030;7.110;2023-12-20T10:45:48;100505.53;;;6.16;100.00
41654;BME280;68687;52.030;7.110;2023-12-20T10:48:13;100503.06;;;6.23;100.00
41654;BME280;68687;52.030;7.110;2023-12-20T10:50:39;100505.56;;;6.24;100.00
41654;BME280;68687;52.030;7.110;2023-12-20T10:53:06;100507.03;;;6.18;100.00
41654;BME280;68687;52.030;7.110;2023-12-20T10:55:35;100503.06;;;6.23;100.00
41654;BME280;68687;52.030;7.110;2023-12-20T10:58:01;100507.28;;;6.33;100.00
41654;BME280;68687;52.030;7.110;2023-12-20T11:00:29;100495.25;;;6.29;100.00
41654;BME280;68687;52.030;7.110;2023-12-20T11:02:56;100489.78;;;6.31;100.00
41654;BME280;68687;52.030;7.110;2023-12-20T11:05:44;100478.97;;;6.32;100.00
41654;BME280;68687;52.030;7.110;2023-12-20T11:08:32;100481.47;;;6.34;100.00
41654;BME280;68687;52.030;7.110;2023-12-20T11:11:13;100476.28;;;6.32;100.00
41654;BME280;68687;52.030;7.110;2023-12-20T11:14:01;100466.97;;;6.36;100.00
41654;BME280;68687;52.030;7.110;2023-12-20T11:16:28;100463.81;;;6.41;100.00
41654;BME280;68687;52.030;7.110;2023-12-20T11:18:53;100465.00;;;6.46;100.00
41654;BME280;68687;52.030;7.110;2023-12-20T11:21:18;100467.00;;;6.44;100.00
41654;BME280;68687;52.030;7.110;2023-12-20T11:23:44;100468.75;;;6.62;100.00
41654;BME280;68687;52.030;7.110;2023-12-20T11:26:15;100454.09;;;6.74;100.00
41654;BME280;68687;52.030;7.110;2023-12-20T11:28:41;100448.09;;;6.80;100.00
41654;BME280;68687;52.030;7.110;2023-12-20T11:31:06;100431.41;;;6.70;100.00
41654;BME280;68687;52.030;7.110;2023-12-20T11:33:37;100424.75;;;6.66;100.00
41654;BME280;68687;52.030;7.110;2023-12-20T11:36:03;100436.75;;;6.78;100.00
41654;BME280;68687;52.030;7.110;2023-12-20T11:38:38;100435.44;;;6.82;100.00
41654;BME280;68687;52.030;7.110;2023-12-20T11:41:05;100446.81;;;6.92;100.00
41654;BME280;68687;52.030;7.110;2023-12-20T11:43:32;100431.78;;;6.91;100.00
41654;BME280;68687;52.030;7.110;2023-12-20T11:46:07;100440.47;;;7.01;100.00
41654;BME280;68687;52.030;7.110;2023-12-20T11:48:34;100428.47;;;7.05;100.00
41654;BME280;68687;52.030;7.110;2023-12-20T11:51:00;100422.31;;;7.13;100.00
41654;BME280;68687;52.030;7.110;2023-12-20T11:53:25;100416.13;;;7.45;100.00
41654;BME280;68687;52.030;7.110;2023-12-20T11:55:51;100414.81;;;7.41;100.00
41654;BME280;68687;52.030;7.110;2023-12-20T11:58:16;100418.13;;;7.35;100.00
41654;BME280;68687;52.030;7.110;2023-12-20T12:00:42;100410.78;;;7.29;100.00
41654;BME280;68687;52.030;7.110;2023-12-20T12:03:14;100410.13;;;7.35;100.00
41654;BME280;68687;52.030;7.110;2023-12-20T12:05:43;100398.59;;;7.34;100.00
41654;BME280;68687;52.030;7.110;2023-12-20T12:08:08;100404.28;;;7.31;100.00
41654;BME280;68687;52.030;7.110;2023-12-20T12:10:33;100386.44;;;7.24;100.00
41654;BME280;68687;52.030;7.110;2023-12-20T12:12:59;100395.94;;;7.26;100.00
41654;BME280;68687;52.030;7.110;2023-12-20T12:15:25;100393.91;;;7.36;100.00
41654;BME280;68687;52.030;7.110;2023-12-20T12:17:54;100395.59;;;7.37;100.00
41654;BME280;68687;52.030;7.110;2023-12-20T12:20:23;100388.91;;;7.33;100.00
41654;BME280;68687;52.030;7.110;2023-12-20T12:23:07;100401.63;;;7.23;100.00
41654;BME280;68687;52.030;7.110;2023-12-20T12:25:35;100391.09;;;7.22;100.00
41654;BME280;68687;52.030;7.110;2023-12-20T12:28:01;100390.75;;;7.33;100.00
41654;BME280;68687;52.030;7.110;2023-12-20T12:30:27;100380.06;;;7.33;100.00
41654;BME280;68687;52.030;7.110;2023-12-20T12:32:53;100394.91;;;7.35;100.00
41654;BME280;68687;52.030;7.110;2023-12-20T12:35:19;100397.44;;;7.37;100.00
41654;BME280;68687;52.030;7.110;2023-12-20T12:37:45;100389.09;;;7.32;100.00
41654;BME280;68687;52.030;7.110;2023-12-20T12:40:15;100376.22;;;7.35;100.00
41654;BME280;68687;52.030;7.110;2023-12-20T12:42:56;100368.22;;;7.35;100.00
41654;BME280;68687;52.030;7.110;2023-12-20T12:45:21;100363.72;;;7.36;100.00
41654;BME280;68687;52.030;7.110;2023-12-20T12:47:50;100369.06;;;7.44;100.00